Sodus, MI (49126)

11:05 AM EDT on March 26, 2017 (GMT -0400)
Royal Circle | | Change Station

Elev 630 ft 42.04 °N, 86.43 °W | Updated 54 minutes ago

Rain
Rain
48.4 °F
Feels Like 47 °F
N
4.0
Wind Variable Wind from West

Today
High -- | Low -- °F
--% Chance of Precip.
Yesterday
High -- | Low -- °F
Precip. -- in
Pressure 29.90 in
Visibility 4.0 miles
Clouds Overcast 600 ft
Windchill 47 °F
Dew Point 48 °F
Humidity 98%
Rainfall 0.04 in
Snow Depth Not available.
7:37 AM 8:04 PM
Waning Crescent, 3% visible
METAR KBEH 261453Z AUTO 12008KT 4SM -RA BR OVC006 10/08 A2989 RMK AO2 RAE17B49 SLP124 P0001 60007 T01000083 58007
Pressure 29.90 in
Visibility 4.0 miles
Clouds Overcast 600 ft
Windchill 47 °F
Dew Point 48 °F
Humidity 98%
Rainfall 0.04 in
Snow Depth Not available.
7:37 AM 8:04 PM
Waning Crescent, 3% visible
METAR KBEH 261453Z AUTO 12008KT 4SM -RA BR OVC006 10/08 A2989 RMK AO2 RAE17B49 SLP124 P0001 60007 T01000083 58007

Get Severe Weather Alerts

Thanks for signing up!

Be on the lookout for a verification email in your inbox.

You'll start receiving the daily forecast at 8 AM.

×

10-Day Weather Forecast

Almanac

Astronomy

Mar. 26, 2017 Rise Set
Actual Time
Civil Twilight
Nautical Twilight
Astronomical Twilight
Moon
Length of Visible Light
Length of Day
Tomorrow will be .
, % of the Moon is Illuminated

Today's Extremes

State Highs State Lows

Community

WunderPhotos

Upload Photos

1,962,540 photos uploaded!

WunderBlog® & News

Nearby

Air Quality

  Air Quality AQ Index Pollutant
Not available.

Snow Depth

Station Depth Elevation

Earthquake Activity

City Distance Mag. Time & Date
Minimum magnitude displayed is 2.5.

Earthquake Activity

City Distance Mag. Time & Date
Minimum magnitude displayed is 2.5.

Coastal Water Temperatures

Place Temperature

Stations

Nearby Weather Stations

Station Location Temp. Windchill Dew Point Humidity Wind Precip. Elev Updated Type
                   

Watches & Warnings

There are currently no watches in effect.